Map

Track Data

SID SEASON NUMBER BASIN SUBBASIN NAME ISO_TIME NATURE LAT LON WMO_WIND WMO_PRES WMO_AGENCY TRACK_TYPE DIST2LAND LANDFALL IFLAG USA_AGENCY USA_ATCF_ID USA_LAT USA_LON USA_RECORD USA_STATUS USA_WIND USA_PRES USA_SSHS USA_R34_NE USA_R34_SE USA_R34_SW USA_R34_NW USA_R50_NE USA_R50_SE USA_R50_SW USA_R50_NW USA_R64_NE USA_R64_SE USA_R64_SW USA_R64_NW USA_POCI USA_ROCI USA_RMW USA_EYE TOKYO_LAT TOKYO_LON TOKYO_GRADE TOKYO_WIND TOKYO_PRES TOKYO_R50_DIR TOKYO_R50_LONG TOKYO_R50_SHORT TOKYO_R30_DIR TOKYO_R30_LONG TOKYO_R30_SHORT TOKYO_LAND CMA_LAT CMA_LON CMA_CAT CMA_WIND CMA_PRES HKO_LAT HKO_LON HKO_CAT HKO_WIND HKO_PRES NEWDELHI_LAT NEWDELHI_LON NEWDELHI_GRADE NEWDELHI_WIND NEWDELHI_PRES NEWDELHI_CI NEWDELHI_DP NEWDELHI_POCI REUNION_LAT REUNION_LON REUNION_TYPE REUNION_WIND REUNION_PRES REUNION_TNUM REUNION_CI REUNION_RMW REUNION_R34_NE REUNION_R34_SE REUNION_R34_SW REUNION_R34_NW REUNION_R50_NE REUNION_R50_SE REUNION_R50_SW REUNION_R50_NW REUNION_R64_NE REUNION_R64_SE REUNION_R64_SW REUNION_R64_NW BOM_LAT BOM_LON BOM_TYPE BOM_WIND BOM_PRES BOM_TNUM BOM_CI BOM_RMW BOM_R34_NE BOM_R34_SE BOM_R34_SW BOM_R34_NW BOM_R50_NE BOM_R50_SE BOM_R50_SW BOM_R50_NW BOM_R64_NE BOM_R64_SE BOM_R64_SW BOM_R64_NW BOM_ROCI BOM_POCI BOM_EYE BOM_POS_METHOD BOM_PRES_METHOD NADI_LAT NADI_LON NADI_CAT NADI_WIND NADI_PRES WELLINGTON_LAT WELLINGTON_LON WELLINGTON_WIND WELLINGTON_PRES DS824_LAT DS824_LON DS824_STAGE DS824_WIND DS824_PRES TD9636_LAT TD9636_LON TD9636_STAGE TD9636_WIND TD9636_PRES TD9635_LAT TD9635_LON TD9635_WIND TD9635_PRES TD9635_ROCI NEUMANN_LAT NEUMANN_LON NEUMANN_CLASS NEUMANN_WIND NEUMANN_PRES MLC_LAT MLC_LON MLC_CLASS MLC_WIND MLC_PRES USA_GUST BOM_GUST BOM_GUST_PER REUNION_GUST REUNION_GUST_PER USA_SEAHGT USA_SEARAD_NE USA_SEARAD_SE USA_SEARAD_SW USA_SEARAD_NW STORM_SPEED STORM_DIR
1947279N23145 1947 76 WP MM ROSALIND 1947-10-06 06:00:00 TS 22.9000 145.000 main 1427 1410 O________O_O__ jtwc_wp WP171947 22.9000 145.000 105 3 22.9000 145.000 TC 105 22.9000 145.000 105 956 300 4 28
1947279N23145 1947 76 WP MM ROSALIND 1947-10-06 09:00:00 TS 23.0950 145.112 main 1410 1392 P________P_P__ WP171947 23.0950 145.112 107 3 23.0950 145.112 TC 107 23.0950 145.112 107 954 300 4 25
1947279N23145 1947 76 WP MM ROSALIND 1947-10-06 12:00:00 TS 23.3000 145.200 main 1392 1371 O________OOO__ jtwc_wp WP171947 23.3000 145.200 110 3 23.3000 145.200 TC 110 23.3000 145.200 3 110 23.3000 145.200 110 952 300 4 17
1947279N23145 1947 76 WP MM ROSALIND 1947-10-06 15:00:00 TS 23.5086 145.255 main 1375 1354 P________PPP__ WP171947 23.5150 145.250 110 3 23.5150 145.250 TC 110 23.4704 145.287 3 110 23.5150 145.250 110 950 330 4 15
1947279N23145 1947 76 WP MM ROSALIND 1947-10-06 18:00:00 TS 23.6865 145.314 main 1354 1347 O________OPO__ jtwc_wp WP171947 23.7000 145.300 110 3 23.7000 145.300 TC 110 23.6326 145.370 3 110 23.7000 145.300 110 949 360 3 26
1947279N23145 1947 76 WP MM ROSALIND 1947-10-06 21:00:00 TS 23.8059 145.416 main 1347 1341 P________PPP__ WP171947 23.8150 145.407 110 3 23.8150 145.407 TC 110 23.7785 145.442 3 110 23.8150 145.407 110 947 480 3 39
1947279N23145 1947 76 WP MM ROSALIND 1947-10-07 00:00:00 TS 23.9000 145.500 main 1341 1330 O________OOO__ jtwc_wp WP171947 23.9000 145.500 110 3 23.9000 145.500 TC 110 23.9000 145.500 4 110 23.9000 145.500 110 945 600 2 24
1947279N23145 1947 76 WP MM ROSALIND 1947-10-07 03:00:00 TS 24.0037 145.516 main 1330 1320 P________PPP__ WP171947 24.0075 145.508 110 3 24.0075 145.508 TC 110 23.9925 145.539 4 110 24.0075 145.508 110 943 600 2 0
1947279N23145 1947 76 WP MM ROSALIND 1947-10-07 06:00:00 TS 24.0912 145.516 main 1320 1320 O________OPO__ jtwc_wp WP171947 24.1000 145.500 110 3 24.1000 145.500 TC 110 24.0650 145.565 4 110 24.1000 145.500 110 942 600 1 17
1947279N23145 1947 76 WP MM ROSALIND 1947-10-07 09:00:00 TS 24.1450 145.558 main 1324 1314 P________PPP__ WP171947 24.1500 145.550 110 3 24.1500 145.550 TC 110 24.1300 145.583 4 110 24.1500 145.550 110 940 660 1 37
1947279N23145 1947 76 WP MM ROSALIND 1947-10-07 12:00:00 TS 24.2000 145.600 main 1314 1304 O________OOO__ jtwc_wp WP171947 24.2000 145.600 110 3 24.2000 145.600 TC 110 24.2000 145.600 4 110 24.2000 145.600 110 939 720 2 22
1947279N23145 1947 76 WP MM ROSALIND 1947-10-07 15:00:00 TS 24.2966 145.624 main 1304 1293 P________PPP__ WP171947 24.2925 145.600 110 3 24.2925 145.600 TC 110 24.3087 145.694 4 110 24.2925 145.600 110 937 750 2 11
1947279N23145 1947 76 WP MM ROSALIND 1947-10-07 18:00:00 TS 24.4055 145.644 main 1293 1287 O________OPO__ jtwc_wp WP171947 24.4000 145.600 110 3 24.4000 145.600 TC 110 24.4219 145.777 4 110 24.4000 145.600 110 935 780 2 15
1947279N23145 1947 76 WP MM ROSALIND 1947-10-07 21:00:00 TS 24.5060 145.681 main 1287 1277 P________PPP__ WP171947 24.5000 145.643 110 3 24.5000 145.643 TC 110 24.5241 145.797 4 110 24.5000 145.643 110 933 720 2 15
1947279N23145 1947 76 WP MM ROSALIND 1947-10-08 00:00:00 TS 24.6000 145.700 main 1277 1271 O________OOO__ jtwc_wp WP171947 24.6000 145.700 110 3 24.6000 145.700 TC 110 24.6000 145.700 4 110 24.6000 145.700 110 932 660 2 24
1947279N23145 1947 76 WP MM ROSALIND 1947-10-08 03:00:00 TS 24.7040 145.782 main 1271 1257 P________PPP__ WP171947 24.7293 145.885 110 3 24.7293 145.885 TC 110 24.6282 145.471 4 112 24.7293 145.885 110 930 600 2 336
1947279N23145 1947 76 WP MM ROSALIND 1947-10-08 06:00:00 TS 24.7572 145.629 main 1253 1239 O________OPO__ jtwc_wp WP171947 24.8000 145.800 110 3 24.8000 145.800 TC 110 24.6289 145.117 4 115 24.8000 145.800 110 928 540 7 269
1947279N23145 1947 76 WP MM ROSALIND 1947-10-08 09:00:00 TS 24.6910 144.960 main 1239 1218 P________PPP__ WP171947 24.7163 145.062 115 4 24.7163 145.062 TC 115 24.6153 144.655 4 117 24.7163 145.062 115 926 510 14 264
1947279N23145 1947 76 WP MM ROSALIND 1947-10-08 12:00:00 TS 24.6000 144.100 main 1218 1197 O________OOO__ jtwc_wp WP171947 24.6000 144.100 120 4 24.6000 144.100 TC 120 24.6000 144.100 4 120 24.6000 144.100 120 925 480 14 266
1947279N23145 1947 76 WP MM ROSALIND 1947-10-08 15:00:00 TS 24.5887 143.396 main 1197 1177 P________PPP__ WP171947 24.5843 143.378 125 4 24.5843 143.378 TC 125 24.6017 143.450 4 122 24.5843 143.378 125 923 480 13 270
1947279N23145 1947 76 WP MM ROSALIND 1947-10-08 18:00:00 TS 24.6006 142.706 main 1177 1151 O________OPO__ jtwc_wp WP171947 24.6000 142.700 130 4 24.6000 142.700 TC 130 24.6025 142.722 4 125 24.6000 142.700 130 921 480 13 271
1947279N23145 1947 76 WP MM ROSALIND 1947-10-08 21:00:00 TS 24.6005 141.974 main 1151 1117 P________PPP__ WP171947 24.6001 141.970 130 4 24.6001 141.970 TC 130 24.6017 141.984 4 127 24.6001 141.970 130 919 450 13 270
1947279N23145 1947 76 WP MM ROSALIND 1947-10-09 00:00:00 TS 24.6000 141.300 main 1117 1095 O________OOO__ jtwc_wp WP171947 24.6000 141.300 130 4 24.6000 141.300 TC 130 24.6000 141.300 4 130 24.6000 141.300 130 918 420 11 270
1947279N23145 1947 76 WP MM ROSALIND 1947-10-09 03:00:00 TS 24.5972 140.764 main 1095 1074 P________PPP__ WP171947 24.5996 140.763 125 4 24.5996 140.763 TC 125 24.5900 140.768 4 125 24.5996 140.763 125 922 450 9 270
1947279N23145 1947 76 WP MM ROSALIND 1947-10-09 06:00:00 TS 24.5957 140.299 main 1074 1059 O________OPO__ jtwc_wp WP171947 24.6000 140.300 120 4 24.6000 140.300 TC 120 24.5826 140.297 4 120 24.6000 140.300 120 927 480 8 270
1947279N23145 1947 76 WP MM ROSALIND 1947-10-09 09:00:00 TS 24.5957 139.862 main 1059 1042 P________PPP__ WP171947 24.5996 139.865 115 4 24.5996 139.865 TC 115 24.5840 139.853 4 115 24.5996 139.865 115 931 480 8 270
1947279N23145 1947 76 WP MM ROSALIND 1947-10-09 12:00:00 TS 24.6000 139.400 main 1042 1024 O________OOO__ jtwc_wp WP171947 24.6000 139.400 110 3 24.6000 139.400 TC 110 24.6000 139.400 4 110 24.6000 139.400 110 936 480 10 270
1947279N23145 1947 76 WP MM ROSALIND 1947-10-09 15:00:00 TS 24.5931 138.801 main 1024 1009 P________PPP__ WP171947 24.5853 138.800 110 3 24.5853 138.800 TC 110 24.6165 138.804 4 107 24.5853 138.800 110 940 510 11 271
1947279N23145 1947 76 WP MM ROSALIND 1947-10-09 18:00:00 TS 24.6123 138.202 main 1009 969 O________OPO__ jtwc_wp WP171947 24.6000 138.200 110 3 24.6000 138.200 TC 110 24.6492 138.208 4 105 24.6000 138.200 110 945 540 10 274
1947279N23145 1947 76 WP MM ROSALIND 1947-10-09 21:00:00 TS 24.6680 137.671 main 969 936 P________PPP__ WP171947 24.6550 137.668 105 3 24.6550 137.668 TC 105 24.7071 137.683 4 102 24.6550 137.668 105 949 510 8 283
1947279N23145 1947 76 WP MM ROSALIND 1947-10-10 00:00:00 TS 24.8000 137.300 main 936 903 O________OOO__ jtwc_wp WP171947 24.8000 137.300 100 3 24.8000 137.300 TC 100 24.8000 137.300 4 100 24.8000 137.300 100 954 480 6 311
1947279N23145 1947 76 WP MM ROSALIND 1947-10-10 03:00:00 TS 25.0680 137.163 main 903 885 P________PPP__ WP171947 25.1073 137.175 95 2 25.1073 137.175 TC 95 24.9501 137.129 4 97 25.1073 137.175 95 955 480 5 348
1947279N23145 1947 76 WP MM ROSALIND 1947-10-10 06:00:00 TS 25.3334 137.176 main 885 877 O________OPO__ jtwc_wp WP171947 25.4000 137.200 90 2 25.4000 137.200 TC 90 25.1337 137.105 4 95 25.4000 137.200 90 957 480 4 5
1947279N23145 1947 76 WP MM ROSALIND 1947-10-10 09:00:00 TS 25.4358 137.215 main 877 868 P________PPP__ WP171947 25.4725 137.228 90 2 25.4725 137.228 TC 90 25.3255 137.178 4 92 25.4725 137.228 90 958 450 2 34
1947279N23145 1947 76 WP MM ROSALIND 1947-10-10 12:00:00 TS 25.5000 137.300 main 874 866 O________OOO__ jtwc_wp WP171947 25.5000 137.300 90 2 25.5000 137.300 TC 90 25.5000 137.300 4 90 25.5000 137.300 90 960 420 3 37
1947279N23145 1947 76 WP MM ROSALIND 1947-10-10 15:00:00 TS 25.6439 137.387 main 872 862 P________PPP__ WP171947 25.6500 137.385 90 2 25.6500 137.385 TC 90 25.6257 137.393 4 90 25.6500 137.385 90 962 420 3 33
1947279N23145 1947 76 WP MM ROSALIND 1947-10-10 18:00:00 TS 25.7825 137.505 main 862 854 O________OPO__ jtwc_wp WP171947 25.8000 137.500 90 2 25.8000 137.500 TC 90 25.7301 137.520 4 90 25.8000 137.500 90 964 420 3 49
1947279N23145 1947 76 WP MM ROSALIND 1947-10-10 21:00:00 TS 25.8536 137.653 main 856 856 P________PPP__ WP171947 25.8650 137.650 90 2 25.8650 137.650 TC 90 25.8195 137.662 4 90 25.8650 137.650 90 962 450 3 66
1947279N23145 1947 76 WP MM ROSALIND 1947-10-11 00:00:00 TS 25.9000 137.800 main 858 850 O________OOO__ jtwc_wp WP171947 25.9000 137.800 90 2 25.9000 137.800 TC 90 25.9000 137.800 4 90 25.9000 137.800 90 961 480 3 66
1947279N23145 1947 76 WP MM ROSALIND 1947-10-11 03:00:00 TS 25.9554 137.908 main 850 850 P________PPP__ WP171947 25.9425 137.908 95 2 25.9425 137.908 TC 95 25.9943 137.911 4 95 25.9425 137.908 95 960 450 2 56
1947279N23145 1947 76 WP MM ROSALIND 1947-10-11 06:00:00 TS 26.0200 138.004 main 852 841 O________OPO__ jtwc_wp WP171947 26.0000 138.000 100 3 26.0000 138.000 TC 100 26.0800 138.015 4 100 26.0000 138.000 100 959 420 2 47
1947279N23145 1947 76 WP MM ROSALIND 1947-10-11 09:00:00 TS 26.1239 138.108 main 844 833 P________PPP__ WP171947 26.1150 138.107 105 3 26.1150 138.107 TC 105 26.1506 138.111 4 105 26.1150 138.107 105 957 420 3 45
1947279N23145 1947 76 WP MM ROSALIND 1947-10-11 12:00:00 TS 26.2000 138.200 main 836 836 O________OOO__ jtwc_wp WP171947 26.2000 138.200 110 3 26.2000 138.200 TC 110 26.2000 138.200 4 110 26.2000 138.200 110 956 420 1 70
1947279N23145 1947 76 WP MM ROSALIND 1947-10-11 15:00:00 TS 26.1714 138.254 main 838 838 P________PPP__ WP171947 26.1575 138.250 105 3 26.1575 138.250 TC 105 26.2133 138.266 4 107 26.1575 138.250 105 955 420 1 128
1947279N23145 1947 76 WP MM ROSALIND 1947-10-11 18:00:00 TS 26.1268 138.307 main 849 849 O________OPO__ jtwc_wp WP171947 26.1000 138.300 100 3 26.1000 138.300 TC 100 26.2073 138.328 4 105 26.1000 138.300 100 954 420 1 100
1947279N23145 1947 76 WP MM ROSALIND 1947-10-11 21:00:00 TS 26.1507 138.389 main 841 841 P________PPP__ WP171947 26.1350 138.385 100 3 26.1350 138.385 TC 100 26.1977 138.400 4 102 26.1350 138.385 100 954 450 2 67
1947279N23145 1947 76 WP MM ROSALIND 1947-10-12 00:00:00 TS 26.2000 138.500 main 844 844 O________OOO__ jtwc_wp WP171947 26.2000 138.500 100 3 26.2000 138.500 TC 100 26.2000 138.500 4 100 26.2000 138.500 100 955 480 2 69
1947279N23145 1947 76 WP MM ROSALIND 1947-10-12 03:00:00 TS 26.2341 138.631 main 847 840 P________PPP__ WP171947 26.2500 138.635 95 2 26.2500 138.635 TC 95 26.1866 138.619 4 97 26.2500 138.635 95 956 450 3 74
1947279N23145 1947 76 WP MM ROSALIND 1947-10-12 06:00:00 TS 26.2736 138.792 main 843 843 O________OPO__ jtwc_wp WP171947 26.3000 138.800 90 2 26.3000 138.800 TC 90 26.1946 138.769 4 95 26.3000 138.800 90 957 420 3 77
1947279N23145 1947 76 WP MM ROSALIND 1947-10-12 09:00:00 TS 26.3038 138.973 main 850 843 P________PPP__ WP171947 26.3199 138.978 90 2 26.3199 138.978 TC 90 26.2552 138.960 4 92 26.3199 138.978 90 958 420 4 71
1947279N23145 1947 76 WP MM ROSALIND 1947-10-12 12:00:00 TS 26.4000 139.200 main 846 833 O________OOO__ jtwc_wp WP171947 26.4000 139.200 90 2 26.4000 139.200 TC 90 26.4000 139.200 4 90 26.4000 139.200 90 959 420 5 56
1947279N23145 1947 76 WP MM ROSALIND 1947-10-12 15:00:00 TS 26.5960 139.465 main 837 820 P________PPP__ WP171947 26.5899 139.470 90 2 26.5899 139.470 TC 90 26.6142 139.449 4 88 26.5899 139.470 90 960 420 7 46
1947279N23145 1947 76 WP MM ROSALIND 1947-10-12 18:00:00 TS 26.9046 139.789 main 820 795 O________OPO__ jtwc_wp WP171947 26.9000 139.800 90 2 26.9000 139.800 TC 90 26.9186 139.754 4 87 26.9000 139.800 90 961 420 9 40
1947279N23145 1947 76 WP MM ROSALIND 1947-10-12 21:00:00 TS 27.3126 140.150 main 795 774 P________PPP__ WP171947 27.3122 140.155 87 2 27.3122 140.155 TC 87 27.3137 140.132 4 86 27.3122 140.155 87 962 330 12 39
1947279N23145 1947 76 WP MM ROSALIND 1947-10-13 00:00:00 TS 27.8000 140.600 main 774 735 O________OOO__ jtwc_wp WP171947 27.8000 140.600 85 2 27.8000 140.600 TC 85 27.8000 140.600 4 85 27.8000 140.600 85 963 240 13 42
1947279N23145 1947 76 WP MM ROSALIND 1947-10-13 03:00:00 TS 28.2814 141.128 main 735 698 P________PPP__ WP171947 28.2473 141.149 80 1 28.2473 141.149 TC 80 28.3838 141.066 4 81 28.2473 141.149 80 966 240 15 44
1947279N23145 1947 76 WP MM ROSALIND 1947-10-13 06:00:00 TS 28.8618 141.760 main 692 646 O________OPO__ jtwc_wp WP171947 28.8000 141.800 75 1 28.8000 141.800 TC 75 29.0474 141.639 4 77 28.8000 141.800 75 969 240 17 42
1947279N23145 1947 76 WP MM ROSALIND 1947-10-13 09:00:00 TS 29.5776 142.461 main 639 598 P________PPP__ WP171947 29.5243 142.492 72 1 29.5243 142.492 TC 72 29.7376 142.368 4 73 29.5243 142.492 72 972 270 20 41
1947279N23145 1947 76 WP MM ROSALIND 1947-10-13 12:00:00 TS 30.4000 143.300 main 593 553 O________OOO__ jtwc_wp WP171947 30.4000 143.300 70 1 30.4000 143.300 TC 70 30.4000 143.300 4 70 30.4000 143.300 70 976 300 24 40
1947279N23145 1947 76 WP MM ROSALIND 1947-10-13 15:00:00 TS 31.3849 144.221 main 551 548 P________PPP__ WP171947 31.5164 144.139 67 1 31.5164 144.139 TC 67 30.9904 144.467 4 65 31.5164 144.139 67 979 300 25 46
1947279N23145 1947 76 WP MM ROSALIND 1947-10-13 18:00:00 TS 32.1776 145.432 main 568 568 O________OPO__ jtwc_wp WP171947 32.4000 145.300 65 1 32.4000 145.300 TC 65 31.5105 145.830 4 60 32.4000 145.300 65 983 300 26 66
1947279N23145 1947 76 WP MM ROSALIND 1947-10-13 21:00:00 TS 32.4576 147.051 main 671 671 P________PPP__ WP171947 32.6185 146.959 57 0 32.6185 146.959 TC 57 31.9749 147.328 4 55 32.6185 146.959 57 986 240 29 86
1947279N23145 1947 76 WP MM ROSALIND 1947-10-14 00:00:00 TS 32.4000 148.900 main 822 O________OOO__ jtwc_wp WP171947 32.4000 148.900 50 0 32.4000 148.900 TC 50 32.4000 148.900 2 50 32.4000 148.900 50 990 180 31 92

Digital Typhoon Data and Search

About IBTrACS Database

This database is a web-friendly format of International Best Track Archive for Climate Stewardship (IBTrACS), a global best track data archive curated by NOAA dating back to 1842.

Updated: 2021-10-21